sensor_id;sensor_type;location;lat;lon;timestamp;pressure;altitude;pressure_sealevel;temperature;humidity
86173;BME280;76822;46.880;8.642;2024-03-02T00:02:40;95209.94;;;5.35;nan
86173;BME280;76822;46.880;8.642;2024-03-02T00:06:01;95210.81;;;5.28;nan
86173;BME280;76822;46.880;8.642;2024-03-02T00:09:22;95214.47;;;5.34;nan
86173;BME280;76822;46.880;8.642;2024-03-02T00:12:42;95210.81;;;5.28;nan
86173;BME280;76822;46.880;8.642;2024-03-02T00:16:03;95215.66;;;5.20;nan
86173;BME280;76822;46.880;8.642;2024-03-02T00:19:25;95216.34;;;5.15;nan
86173;BME280;76822;46.880;8.642;2024-03-02T00:22:46;95222.53;;;5.16;nan
86173;BME280;76822;46.880;8.642;2024-03-02T00:26:06;95222.97;;;5.13;nan
86173;BME280;76822;46.880;8.642;2024-03-02T00:29:29;95229.94;;;5.14;nan
86173;BME280;76822;46.880;8.642;2024-03-02T00:32:49;95227.34;;;5.07;nan
86173;BME280;76822;46.880;8.642;2024-03-02T00:36:16;95234.78;;;5.23;nan
86173;BME280;76822;46.880;8.642;2024-03-02T00:39:37;95236.84;;;5.21;nan
86173;BME280;76822;46.880;8.642;2024-03-02T00:42:57;95247.03;;;5.13;nan
86173;BME280;76822;46.880;8.642;2024-03-02T00:46:19;95250.44;;;5.20;nan
86173;BME280;76822;46.880;8.642;2024-03-02T00:49:39;95261.91;;;5.27;nan
86173;BME280;76822;46.880;8.642;2024-03-02T00:53:01;95254.97;;;5.19;nan
86173;BME280;76822;46.880;8.642;2024-03-02T00:56:23;95262.66;;;5.16;nan
86173;BME280;76822;46.880;8.642;2024-03-02T00:59:44;95260.81;;;5.16;nan
86173;BME280;76822;46.880;8.642;2024-03-02T01:03:06;95267.31;;;5.20;nan
86173;BME280;76822;46.880;8.642;2024-03-02T01:06:28;95276.84;;;5.16;nan
86173;BME280;76822;46.880;8.642;2024-03-02T01:09:48;95273.97;;;5.18;nan
86173;BME280;76822;46.880;8.642;2024-03-02T01:13:09;95281.16;;;5.17;nan
86173;BME280;76822;46.880;8.642;2024-03-02T01:16:30;95278.84;;;5.21;nan
86173;BME280;76822;46.880;8.642;2024-03-02T01:19:50;95280.28;;;5.23;nan
86173;BME280;76822;46.880;8.642;2024-03-02T01:23:11;95286.44;;;5.24;nan
86173;BME280;76822;46.880;8.642;2024-03-02T01:26:31;95281.31;;;5.41;nan
86173;BME280;76822;46.880;8.642;2024-03-02T01:29:52;95290.06;;;5.48;nan
86173;BME280;76822;46.880;8.642;2024-03-02T01:33:12;95282.44;;;5.51;nan
86173;BME280;76822;46.880;8.642;2024-03-02T01:36:33;95287.00;;;5.62;nan
86173;BME280;76822;46.880;8.642;2024-03-02T01:39:53;95279.78;;;5.63;nan
86173;BME280;76822;46.880;8.642;2024-03-02T01:43:13;95287.56;;;5.53;nan
86173;BME280;76822;46.880;8.642;2024-03-02T01:46:34;95284.28;;;5.51;nan
86173;BME280;76822;46.880;8.642;2024-03-02T01:49:55;95284.56;;;5.61;nan
86173;BME280;76822;46.880;8.642;2024-03-02T01:53:15;95280.38;;;5.65;nan
86173;BME280;76822;46.880;8.642;2024-03-02T01:56:36;95286.50;;;5.54;nan
86173;BME280;76822;46.880;8.642;2024-03-02T01:59:57;95280.81;;;5.62;nan
86173;BME280;76822;46.880;8.642;2024-03-02T02:03:18;95291.41;;;5.57;nan
86173;BME280;76822;46.880;8.642;2024-03-02T02:06:38;95290.75;;;5.43;nan
86173;BME280;76822;46.880;8.642;2024-03-02T02:09:59;95290.59;;;5.38;nan
86173;BME280;76822;46.880;8.642;2024-03-02T02:13:19;95287.88;;;5.26;nan
86173;BME280;76822;46.880;8.642;2024-03-02T02:16:40;95293.34;;;5.31;nan
86173;BME280;76822;46.880;8.642;2024-03-02T02:20:00;95280.28;;;5.42;nan
86173;BME280;76822;46.880;8.642;2024-03-02T02:23:21;95284.72;;;5.29;nan
86173;BME280;76822;46.880;8.642;2024-03-02T02:26:41;95282.44;;;5.33;nan
86173;BME280;76822;46.880;8.642;2024-03-02T02:30:02;95276.47;;;5.31;nan
86173;BME280;76822;46.880;8.642;2024-03-02T02:33:23;95275.06;;;5.28;nan
86173;BME280;76822;46.880;8.642;2024-03-02T02:36:43;95272.31;;;5.35;nan
86173;BME280;76822;46.880;8.642;2024-03-02T02:40:05;95276.16;;;5.39;nan
86173;BME280;76822;46.880;8.642;2024-03-02T02:43:25;95272.31;;;5.35;nan
86173;BME280;76822;46.880;8.642;2024-03-02T02:46:46;95263.91;;;5.31;nan
86173;BME280;76822;46.880;8.642;2024-03-02T02:50:10;95266.91;;;5.23;nan
86173;BME280;76822;46.880;8.642;2024-03-02T02:53:31;95266.47;;;5.26;nan
86173;BME280;76822;46.880;8.642;2024-03-02T02:56:51;95254.34;;;5.24;nan
86173;BME280;76822;46.880;8.642;2024-03-02T03:00:13;95257.38;;;5.09;nan
86173;BME280;76822;46.880;8.642;2024-03-02T03:03:35;95260.88;;;5.10;nan
86173;BME280;76822;46.880;8.642;2024-03-02T03:06:55;95253.50;;;5.05;nan
86173;BME280;76822;46.880;8.642;2024-03-02T03:10:17;95241.47;;;4.96;nan
86173;BME280;76822;46.880;8.642;2024-03-02T03:13:37;95245.47;;;5.05;nan
86173;BME280;76822;46.880;8.642;2024-03-02T03:16:58;95238.34;;;4.99;nan
86173;BME280;76822;46.880;8.642;2024-03-02T03:20:18;95236.72;;;4.98;nan
86173;BME280;76822;46.880;8.642;2024-03-02T03:23:39;95235.06;;;4.97;nan
86173;BME280;76822;46.880;8.642;2024-03-02T03:27:00;95228.31;;;4.94;nan
86173;BME280;76822;46.880;8.642;2024-03-02T03:30:20;95239.09;;;4.88;nan
86173;BME280;76822;46.880;8.642;2024-03-02T03:33:41;95236.47;;;4.81;nan
86173;BME280;76822;46.880;8.642;2024-03-02T03:37:02;95236.84;;;4.85;nan
86173;BME280;76822;46.880;8.642;2024-03-02T03:40:22;95242.34;;;4.90;nan
86173;BME280;76822;46.880;8.642;2024-03-02T03:43:43;95244.53;;;5.00;nan
86173;BME280;76822;46.880;8.642;2024-03-02T03:47:03;95233.44;;;4.96;nan
86173;BME280;76822;46.880;8.642;2024-03-02T03:50:23;95240.72;;;4.89;nan
86173;BME280;76822;46.880;8.642;2024-03-02T03:53:44;95240.19;;;4.80;nan
86173;BME280;76822;46.880;8.642;2024-03-02T03:57:04;95238.63;;;4.73;nan
86173;BME280;76822;46.880;8.642;2024-03-02T04:00:25;95232.03;;;4.75;nan
86173;BME280;76822;46.880;8.642;2024-03-02T04:03:45;95235.41;;;4.64;nan
86173;BME280;76822;46.880;8.642;2024-03-02T04:07:05;95236.25;;;4.65;nan
86173;BME280;76822;46.880;8.642;2024-03-02T04:10:26;95230.72;;;4.60;nan
86173;BME280;76822;46.880;8.642;2024-03-02T04:13:46;95221.50;;;4.55;nan
86173;BME280;76822;46.880;8.642;2024-03-02T04:17:07;95222.34;;;4.56;nan
86173;BME280;76822;46.880;8.642;2024-03-02T04:20:27;95214.09;;;4.57;nan
86173;BME280;76822;46.880;8.642;2024-03-02T04:23:47;95215.97;;;4.57;nan
86173;BME280;76822;46.880;8.642;2024-03-02T04:27:08;95205.47;;;4.55;nan
86173;BME280;76822;46.880;8.642;2024-03-02T04:30:28;95202.94;;;4.61;nan
86173;BME280;76822;46.880;8.642;2024-03-02T04:33:48;95199.69;;;4.59;nan
86173;BME280;76822;46.880;8.642;2024-03-02T04:37:11;95190.47;;;4.54;nan
86173;BME280;76822;46.880;8.642;2024-03-02T04:40:32;95200.78;;;4.33;nan
86173;BME280;76822;46.880;8.642;2024-03-02T04:43:52;95189.00;;;4.15;nan
86173;BME280;76822;46.880;8.642;2024-03-02T04:47:13;95190.84;;;4.15;nan
86173;BME280;76822;46.880;8.642;2024-03-02T04:50:33;95189.47;;;4.06;nan
86173;BME280;76822;46.880;8.642;2024-03-02T04:53:54;95188.72;;;3.99;nan
86173;BME280;76822;46.880;8.642;2024-03-02T04:57:14;95198.88;;;3.84;nan
86173;BME280;76822;46.880;8.642;2024-03-02T05:00:35;95200.63;;;3.71;nan
86173;BME280;76822;46.880;8.642;2024-03-02T05:03:55;95201.03;;;3.68;nan
86173;BME280;76822;46.880;8.642;2024-03-02T05:07:16;95204.31;;;3.70;nan
86173;BME280;76822;46.880;8.642;2024-03-02T05:10:37;95211.09;;;3.73;nan
86173;BME280;76822;46.880;8.642;2024-03-02T05:13:57;95207.75;;;3.77;nan
86173;BME280;76822;46.880;8.642;2024-03-02T05:17:17;95210.66;;;3.76;nan
86173;BME280;76822;46.880;8.642;2024-03-02T05:20:38;95211.09;;;3.73;nan
86173;BME280;76822;46.880;8.642;2024-03-02T05:23:58;95213.63;;;3.61;nan
86173;BME280;76822;46.880;8.642;2024-03-02T05:27:19;95216.84;;;3.70;nan
86173;BME280;76822;46.880;8.642;2024-03-02T05:30:39;95220.50;;;3.75;nan
86173;BME280;76822;46.880;8.642;2024-03-02T05:34:02;95221.22;;;3.64;nan
86173;BME280;76822;46.880;8.642;2024-03-02T05:37:22;95234.19;;;3.54;nan
86173;BME280;76822;46.880;8.642;2024-03-02T05:40:43;95229.69;;;3.55;nan
86173;BME280;76822;46.880;8.642;2024-03-02T05:44:04;95233.75;;;3.64;nan
86173;BME280;76822;46.880;8.642;2024-03-02T05:47:24;95232.50;;;3.60;nan
86173;BME280;76822;46.880;8.642;2024-03-02T05:50:44;95227.25;;;3.47;nan
86173;BME280;76822;46.880;8.642;2024-03-02T05:54:05;95236.28;;;3.46;nan
86173;BME280;76822;46.880;8.642;2024-03-02T05:57:25;95232.16;;;3.50;nan
86173;BME280;76822;46.880;8.642;2024-03-02T06:01:05;95244.47;;;3.51;nan
86173;BME280;76822;46.880;8.642;2024-03-02T06:04:25;95245.72;;;3.48;nan
86173;BME280;76822;46.880;8.642;2024-03-02T06:07:46;95241.22;;;3.42;nan
86173;BME280;76822;46.880;8.642;2024-03-02T06:11:06;95250.25;;;3.41;nan
86173;BME280;76822;46.880;8.642;2024-03-02T06:14:26;95250.50;;;3.39;nan
86173;BME280;76822;46.880;8.642;2024-03-02T06:17:47;95248.03;;;3.38;nan
86173;BME280;76822;46.880;8.642;2024-03-02T06:21:07;95258.34;;;3.28;nan
86173;BME280;76822;46.880;8.642;2024-03-02T06:24:28;95256.28;;;3.30;nan
86173;BME280;76822;46.880;8.642;2024-03-02T06:27:48;95257.06;;;3.37;nan
86173;BME280;76822;46.880;8.642;2024-03-02T06:31:09;95258.72;;;3.38;nan
86173;BME280;76822;46.880;8.642;2024-03-02T06:34:29;95257.84;;;3.44;nan
86173;BME280;76822;46.880;8.642;2024-03-02T06:37:50;95274.84;;;3.56;nan
86173;BME280;76822;46.880;8.642;2024-03-02T06:41:11;95269.72;;;3.86;nan
86173;BME280;76822;46.880;8.642;2024-03-02T06:44:31;95278.72;;;3.92;nan
86173;BME280;76822;46.880;8.642;2024-03-02T06:47:52;95276.66;;;3.94;nan
86173;BME280;76822;46.880;8.642;2024-03-02T06:51:12;95275.38;;;4.03;nan
86173;BME280;76822;46.880;8.642;2024-03-02T06:54:32;95284.78;;;4.12;nan
86173;BME280;76822;46.880;8.642;2024-03-02T06:57:54;95277.19;;;4.09;nan
86173;BME280;76822;46.880;8.642;2024-03-02T07:01:15;95289.63;;;4.22;nan
86173;BME280;76822;46.880;8.642;2024-03-02T07:04:35;95290.50;;;4.15;nan
86173;BME280;76822;46.880;8.642;2024-03-02T07:07:56;95294.97;;;4.22;nan
86173;BME280;76822;46.880;8.642;2024-03-02T07:11:16;95294.88;;;4.35;nan
86173;BME280;76822;46.880;8.642;2024-03-02T07:14:36;95289.53;;;4.35;nan
86173;BME280;76822;46.880;8.642;2024-03-02T07:18:15;95290.97;;;4.37;nan
86173;BME280;76822;46.880;8.642;2024-03-02T07:21:36;95298.34;;;4.67;nan
86173;BME280;76822;46.880;8.642;2024-03-02T07:24:56;95298.88;;;4.75;nan
86173;BME280;76822;46.880;8.642;2024-03-02T07:28:17;95305.13;;;4.87;nan
86173;BME280;76822;46.880;8.642;2024-03-02T07:31:37;95298.88;;;4.75;nan
86173;BME280;76822;46.880;8.642;2024-03-02T07:34:57;95297.63;;;4.96;nan
86173;BME280;76822;46.880;8.642;2024-03-02T07:38:18;95286.44;;;5.06;nan
86173;BME280;76822;46.880;8.642;2024-03-02T07:41:38;95279.22;;;5.61;nan
86173;BME280;76822;46.880;8.642;2024-03-02T07:44:59;95271.81;;;5.26;nan
86173;BME280;76822;46.880;8.642;2024-03-02T07:48:19;95266.50;;;5.56;nan
86173;BME280;76822;46.880;8.642;2024-03-02T07:51:40;95263.09;;;5.79;nan
86173;BME280;76822;46.880;8.642;2024-03-02T07:55:00;95253.41;;;6.38;nan
86173;BME280;76822;46.880;8.642;2024-03-02T07:58:21;95243.59;;;7.25;nan
86173;BME280;76822;46.880;8.642;2024-03-02T08:01:41;95240.84;;;6.73;nan
86173;BME280;76822;46.880;8.642;2024-03-02T08:05:02;95244.75;;;7.29;nan
86173;BME280;76822;46.880;8.642;2024-03-02T08:08:22;95249.09;;;8.44;nan
86173;BME280;76822;46.880;8.642;2024-03-02T08:11:43;95243.00;;;8.48;nan
86173;BME280;76822;46.880;8.642;2024-03-02T08:15:04;95233.03;;;8.99;nan
86173;BME280;76822;46.880;8.642;2024-03-02T08:18:24;95225.44;;;9.34;nan
86173;BME280;76822;46.880;8.642;2024-03-02T08:21:45;95216.53;;;10.04;nan
86173;BME280;76822;46.880;8.642;2024-03-02T08:25:06;95214.47;;;10.11;nan
86173;BME280;76822;46.880;8.642;2024-03-02T08:28:27;95200.13;;;11.59;nan
86173;BME280;76822;46.880;8.642;2024-03-02T08:31:47;95191.88;;;11.86;nan
86173;BME280;76822;46.880;8.642;2024-03-02T08:35:09;95175.13;;;11.26;nan
86173;BME280;76822;46.880;8.642;2024-03-02T08:38:30;95171.56;;;11.83;nan
86173;BME280;76822;46.880;8.642;2024-03-02T08:41:50;95160.91;;;10.57;nan
86173;BME280;76822;46.880;8.642;2024-03-02T08:45:10;95156.69;;;11.13;nan
86173;BME280;76822;46.880;8.642;2024-03-02T08:48:31;95153.44;;;11.11;nan
86173;BME280;76822;46.880;8.642;2024-03-02T08:51:51;95141.09;;;11.30;nan
86173;BME280;76822;46.880;8.642;2024-03-02T08:55:14;95136.72;;;11.19;nan
86173;BME280;76822;46.880;8.642;2024-03-02T08:58:35;95129.41;;;12.88;nan
86173;BME280;76822;46.880;8.642;2024-03-02T09:01:55;95119.13;;;13.65;nan
86173;BME280;76822;46.880;8.642;2024-03-02T09:05:16;95095.84;;;14.37;nan
86173;BME280;76822;46.880;8.642;2024-03-02T09:08:36;95097.03;;;14.26;nan
86173;BME280;76822;46.880;8.642;2024-03-02T09:11:56;95087.25;;;14.59;nan
86173;BME280;76822;46.880;8.642;2024-03-02T09:15:18;95086.00;;;15.28;nan
86173;BME280;76822;46.880;8.642;2024-03-02T09:18:38;95074.56;;;15.73;nan
86173;BME280;76822;46.880;8.642;2024-03-02T09:21:58;95067.34;;;16.98;nan
86173;BME280;76822;46.880;8.642;2024-03-02T09:25:19;95057.69;;;16.09;nan
86173;BME280;76822;46.880;8.642;2024-03-02T09:28:43;95042.72;;;15.50;nan
86173;BME280;76822;46.880;8.642;2024-03-02T09:32:04;95036.88;;;17.87;nan
86173;BME280;76822;46.880;8.642;2024-03-02T09:35:25;95030.94;;;18.30;nan
86173;BME280;76822;46.880;8.642;2024-03-02T09:38:46;95034.78;;;18.73;nan
86173;BME280;76822;46.880;8.642;2024-03-02T09:42:07;95025.63;;;17.66;nan
86173;BME280;76822;46.880;8.642;2024-03-02T09:45:27;95028.75;;;17.19;nan
86173;BME280;76822;46.880;8.642;2024-03-02T09:48:47;95005.44;;;16.99;nan
86173;BME280;76822;46.880;8.642;2024-03-02T09:52:08;95004.63;;;17.12;nan
86173;BME280;76822;46.880;8.642;2024-03-02T09:55:30;95014.88;;;19.60;nan
86173;BME280;76822;46.880;8.642;2024-03-02T09:58:50;94999.31;;;18.37;nan
86173;BME280;76822;46.880;8.642;2024-03-02T10:02:12;95013.09;;;19.47;nan
86173;BME280;76822;46.880;8.642;2024-03-02T10:05:32;95004.44;;;19.23;nan
86173;BME280;76822;46.880;8.642;2024-03-02T10:08:53;95030.72;;;20.24;nan
86173;BME280;76822;46.880;8.642;2024-03-02T10:12:16;95013.44;;;21.22;nan
86173;BME280;76822;46.880;8.642;2024-03-02T10:15:38;95001.19;;;19.60;nan
86173;BME280;76822;46.880;8.642;2024-03-02T10:19:22;95013.56;;;22.46;nan
86173;BME280;76822;46.880;8.642;2024-03-02T10:22:43;95000.34;;;19.51;nan
86173;BME280;76822;46.880;8.642;2024-03-02T10:26:16;95005.06;;;24.70;nan
86173;BME280;76822;46.880;8.642;2024-03-02T10:29:38;95016.53;;;27.26;nan
86173;BME280;76822;46.880;8.642;2024-03-02T10:33:03;95005.81;;;26.09;nan
86173;BME280;76822;46.880;8.642;2024-03-02T10:36:25;94998.34;;;22.82;nan
86173;BME280;76822;46.880;8.642;2024-03-02T10:39:46;95000.00;;;27.33;nan
86173;BME280;76822;46.880;8.642;2024-03-02T10:43:07;94988.00;;;27.02;nan
86173;BME280;76822;46.880;8.642;2024-03-02T10:46:29;94987.75;;;26.69;nan
86173;BME280;76822;46.880;8.642;2024-03-02T10:49:51;94995.19;;;27.07;nan
86173;BME280;76822;46.880;8.642;2024-03-02T10:53:11;94977.44;;;24.27;nan
86173;BME280;76822;46.880;8.642;2024-03-02T10:56:43;94984.16;;;26.49;nan
86173;BME280;76822;46.880;8.642;2024-03-02T11:00:07;95004.19;;;25.57;nan
86173;BME280;76822;46.880;8.642;2024-03-02T11:03:29;94962.56;;;25.03;nan
86173;BME280;76822;46.880;8.642;2024-03-02T11:07:03;94993.19;;;27.27;nan
86173;BME280;76822;46.880;8.642;2024-03-02T11:10:24;94958.22;;;24.58;nan
86173;BME280;76822;46.880;8.642;2024-03-02T11:13:49;94950.00;;;24.46;nan
86173;BME280;76822;46.880;8.642;2024-03-02T11:17:11;94948.13;;;30.77;nan
86173;BME280;76822;46.880;8.642;2024-03-02T11:20:35;94961.78;;;30.24;nan
86173;BME280;76822;46.880;8.642;2024-03-02T11:23:57;94953.22;;;25.39;nan
86173;BME280;76822;46.880;8.642;2024-03-02T11:31:06;94937.59;;;30.35;nan
86173;BME280;76822;46.880;8.642;2024-03-02T11:34:30;94938.47;;;29.88;nan
86173;BME280;76822;46.880;8.642;2024-03-02T11:37:51;94945.16;;;27.95;nan
86173;BME280;76822;46.880;8.642;2024-03-02T11:41:12;94905.53;;;24.07;nan
86173;BME280;76822;46.880;8.642;2024-03-02T11:44:35;94927.34;;;28.55;nan
86173;BME280;76822;46.880;8.642;2024-03-02T11:47:59;94928.06;;;29.74;nan
86173;BME280;76822;46.880;8.642;2024-03-02T11:51:21;94916.53;;;25.73;nan
86173;BME280;76822;46.880;8.642;2024-03-02T11:54:44;94907.72;;;25.68;nan
86173;BME280;76822;46.880;8.642;2024-03-02T11:58:09;94899.56;;;30.78;nan
86173;BME280;76822;46.880;8.642;2024-03-02T12:01:34;94886.22;;;28.31;nan
86173;BME280;76822;46.880;8.642;2024-03-02T12:04:56;94930.00;;;29.70;nan
86173;BME280;76822;46.880;8.642;2024-03-02T12:08:17;94897.56;;;27.93;nan
86173;BME280;76822;46.880;8.642;2024-03-02T12:11:38;94899.41;;;26.03;nan
86173;BME280;76822;46.880;8.642;2024-03-02T12:14:58;94854.94;;;25.92;nan
86173;BME280;76822;46.880;8.642;2024-03-02T12:18:20;94851.19;;;21.14;nan
86173;BME280;76822;46.880;8.642;2024-03-02T12:21:41;94857.97;;;23.55;nan
86173;BME280;76822;46.880;8.642;2024-03-02T12:25:01;94877.28;;;31.06;nan
86173;BME280;76822;46.880;8.642;2024-03-02T12:28:23;94838.44;;;26.37;nan
86173;BME280;76822;46.880;8.642;2024-03-02T12:31:44;94835.53;;;24.24;nan
86173;BME280;76822;46.880;8.642;2024-03-02T12:35:05;94823.03;;;26.17;nan
86173;BME280;76822;46.880;8.642;2024-03-02T12:38:26;94845.47;;;31.22;nan
86173;BME280;76822;46.880;8.642;2024-03-02T12:41:47;94842.25;;;30.98;nan
86173;BME280;76822;46.880;8.642;2024-03-02T12:45:08;94811.75;;;22.63;nan
86173;BME280;76822;46.880;8.642;2024-03-02T12:48:29;94812.25;;;28.49;nan
86173;BME280;76822;46.880;8.642;2024-03-02T12:51:49;94818.72;;;27.94;nan
86173;BME280;76822;46.880;8.642;2024-03-02T12:55:13;94774.53;;;21.51;nan
86173;BME280;76822;46.880;8.642;2024-03-02T12:58:40;94820.16;;;17.74;nan
86173;BME280;76822;46.880;8.642;2024-03-02T13:02:03;94770.16;;;17.21;nan
86173;BME280;76822;46.880;8.642;2024-03-02T13:05:24;94790.09;;;18.05;nan
86173;BME280;76822;46.880;8.642;2024-03-02T13:08:46;94787.63;;;18.83;nan
86173;BME280;76822;46.880;8.642;2024-03-02T13:12:07;94797.94;;;17.00;nan
86173;BME280;76822;46.880;8.642;2024-03-02T13:15:27;94794.72;;;17.96;nan
86173;BME280;76822;46.880;8.642;2024-03-02T13:18:49;94800.25;;;16.03;nan
86173;BME280;76822;46.880;8.642;2024-03-02T13:22:09;94787.31;;;17.21;nan
86173;BME280;76822;46.880;8.642;2024-03-02T13:25:29;94804.69;;;17.70;nan
86173;BME280;76822;46.880;8.642;2024-03-02T13:28:51;94775.56;;;16.76;nan
86173;BME280;76822;46.880;8.642;2024-03-02T13:32:12;94787.72;;;16.56;nan
86173;BME280;76822;46.880;8.642;2024-03-02T13:35:32;94791.81;;;17.17;nan
86173;BME280;76822;46.880;8.642;2024-03-02T13:38:52;94777.63;;;15.61;nan
86173;BME280;76822;46.880;8.642;2024-03-02T13:42:13;94792.16;;;15.05;nan
86173;BME280;76822;46.880;8.642;2024-03-02T13:45:35;94779.28;;;15.89;nan
86173;BME280;76822;46.880;8.642;2024-03-02T13:48:57;94798.06;;;13.85;nan
86173;BME280;76822;46.880;8.642;2024-03-02T13:52:18;94801.66;;;13.22;nan
86173;BME280;76822;46.880;8.642;2024-03-02T13:55:40;94772.28;;;13.35;nan
86173;BME280;76822;46.880;8.642;2024-03-02T13:59:02;94781.44;;;13.91;nan
86173;BME280;76822;46.880;8.642;2024-03-02T14:02:22;94766.47;;;14.18;nan
86173;BME280;76822;46.880;8.642;2024-03-02T14:05:43;94762.66;;;14.19;nan
86173;BME280;76822;46.880;8.642;2024-03-02T14:09:03;94746.84;;;13.78;nan
86173;BME280;76822;46.880;8.642;2024-03-02T14:12:24;94760.19;;;13.51;nan
86173;BME280;76822;46.880;8.642;2024-03-02T14:15:44;94721.50;;;12.48;nan
86173;BME280;76822;46.880;8.642;2024-03-02T14:19:06;94755.50;;;12.65;nan
86173;BME280;76822;46.880;8.642;2024-03-02T14:22:26;94734.16;;;13.26;nan
86173;BME280;76822;46.880;8.642;2024-03-02T14:25:47;94744.25;;;12.81;nan
86173;BME280;76822;46.880;8.642;2024-03-02T14:29:07;94763.06;;;12.19;nan
86173;BME280;76822;46.880;8.642;2024-03-02T14:32:28;94740.38;;;12.59;nan
86173;BME280;76822;46.880;8.642;2024-03-02T14:35:48;94745.16;;;12.28;nan
86173;BME280;76822;46.880;8.642;2024-03-02T14:39:09;94767.03;;;12.41;nan
86173;BME280;76822;46.880;8.642;2024-03-02T14:42:30;94753.16;;;12.48;nan
86173;BME280;76822;46.880;8.642;2024-03-02T14:45:51;94756.91;;;12.52;nan
86173;BME280;76822;46.880;8.642;2024-03-02T14:49:12;94764.63;;;12.30;nan
86173;BME280;76822;46.880;8.642;2024-03-02T14:52:33;94736.88;;;12.53;nan
86173;BME280;76822;46.880;8.642;2024-03-02T14:55:54;94746.47;;;12.74;nan
86173;BME280;76822;46.880;8.642;2024-03-02T14:59:15;94747.38;;;12.60;nan
86173;BME280;76822;46.880;8.642;2024-03-02T15:02:35;94784.84;;;11.88;nan
86173;BME280;76822;46.880;8.642;2024-03-02T15:05:56;94739.22;;;11.61;nan
86173;BME280;76822;46.880;8.642;2024-03-02T15:09:16;94730.31;;;11.51;nan
86173;BME280;76822;46.880;8.642;2024-03-02T15:12:39;94756.53;;;11.60;nan
86173;BME280;76822;46.880;8.642;2024-03-02T15:16:00;94753.41;;;12.07;nan
86173;BME280;76822;46.880;8.642;2024-03-02T15:19:21;94743.28;;;11.59;nan
86173;BME280;76822;46.880;8.642;2024-03-02T15:22:41;94739.84;;;12.12;nan
86173;BME280;76822;46.880;8.642;2024-03-02T15:26:02;94733.59;;;11.48;nan
86173;BME280;76822;46.880;8.642;2024-03-02T15:29:22;94749.84;;;11.17;nan
86173;BME280;76822;46.880;8.642;2024-03-02T15:32:45;94744.56;;;13.09;nan
86173;BME280;76822;46.880;8.642;2024-03-02T15:36:05;94732.38;;;13.88;nan
86173;BME280;76822;46.880;8.642;2024-03-02T15:39:26;94730.03;;;13.29;nan
86173;BME280;76822;46.880;8.642;2024-03-02T15:42:46;94706.97;;;12.68;nan
86173;BME280;76822;46.880;8.642;2024-03-02T15:46:07;94728.84;;;13.87;nan
86173;BME280;76822;46.880;8.642;2024-03-02T15:49:27;94727.75;;;13.64;nan
86173;BME280;76822;46.880;8.642;2024-03-02T15:52:48;94744.78;;;12.83;nan
86173;BME280;76822;46.880;8.642;2024-03-02T15:56:09;94727.19;;;12.81;nan
86173;BME280;76822;46.880;8.642;2024-03-02T15:59:29;94718.88;;;13.35;nan
86173;BME280;76822;46.880;8.642;2024-03-02T16:02:49;94734.09;;;14.21;nan
86173;BME280;76822;46.880;8.642;2024-03-02T16:06:10;94727.03;;;14.63;nan
86173;BME280;76822;46.880;8.642;2024-03-02T16:09:30;94721.53;;;14.68;nan
86173;BME280;76822;46.880;8.642;2024-03-02T16:12:50;94722.03;;;14.70;nan
86173;BME280;76822;46.880;8.642;2024-03-02T16:16:12;94708.16;;;14.71;nan
86173;BME280;76822;46.880;8.642;2024-03-02T16:19:32;94731.34;;;14.64;nan
86173;BME280;76822;46.880;8.642;2024-03-02T16:22:52;94734.81;;;14.51;nan
86173;BME280;76822;46.880;8.642;2024-03-02T16:26:13;94724.47;;;14.53;nan
86173;BME280;76822;46.880;8.642;2024-03-02T16:29:33;94702.59;;;14.63;nan
86173;BME280;76822;46.880;8.642;2024-03-02T16:32:54;94707.50;;;14.61;nan
86173;BME280;76822;46.880;8.642;2024-03-02T16:36:14;94704.22;;;14.45;nan
86173;BME280;76822;46.880;8.642;2024-03-02T16:39:34;94706.25;;;14.34;nan
86173;BME280;76822;46.880;8.642;2024-03-02T16:42:55;94710.06;;;14.33;nan
86173;BME280;76822;46.880;8.642;2024-03-02T16:46:16;94702.44;;;14.35;nan
86173;BME280;76822;46.880;8.642;2024-03-02T16:49:36;94710.19;;;14.23;nan
86173;BME280;76822;46.880;8.642;2024-03-02T16:52:57;94705.13;;;14.17;nan
86173;BME280;76822;46.880;8.642;2024-03-02T16:56:18;94704.75;;;14.05;nan
86173;BME280;76822;46.880;8.642;2024-03-02T16:59:40;94719.81;;;14.16;nan
86173;BME280;76822;46.880;8.642;2024-03-02T17:03:00;94719.56;;;14.12;nan
86173;BME280;76822;46.880;8.642;2024-03-02T17:06:20;94701.91;;;13.72;nan
86173;BME280;76822;46.880;8.642;2024-03-02T17:09:41;94720.97;;;13.67;nan
86173;BME280;76822;46.880;8.642;2024-03-02T17:13:02;94689.25;;;13.44;nan
86173;BME280;76822;46.880;8.642;2024-03-02T17:16:23;94712.44;;;14.40;nan
86173;BME280;76822;46.880;8.642;2024-03-02T17:19:44;94713.03;;;14.13;nan
86173;BME280;76822;46.880;8.642;2024-03-02T17:23:04;94692.44;;;14.12;nan
86173;BME280;76822;46.880;8.642;2024-03-02T17:26:25;94719.75;;;13.97;nan
86173;BME280;76822;46.880;8.642;2024-03-02T17:29:45;94712.22;;;13.94;nan
86173;BME280;76822;46.880;8.642;2024-03-02T17:33:05;94689.56;;;14.03;nan
86173;BME280;76822;46.880;8.642;2024-03-02T17:36:26;94697.06;;;14.12;nan
86173;BME280;76822;46.880;8.642;2024-03-02T17:39:46;94698.09;;;14.34;nan
86173;BME280;76822;46.880;8.642;2024-03-02T17:43:07;94711.19;;;13.90;nan
86173;BME280;76822;46.880;8.642;2024-03-02T17:46:28;94700.34;;;13.90;nan
86173;BME280;76822;46.880;8.642;2024-03-02T17:49:48;94687.84;;;13.89;nan
86173;BME280;76822;46.880;8.642;2024-03-02T17:53:09;94678.22;;;14.20;nan
86173;BME280;76822;46.880;8.642;2024-03-02T17:56:30;94730.06;;;14.37;nan
86173;BME280;76822;46.880;8.642;2024-03-02T17:59:50;94723.72;;;14.28;nan
86173;BME280;76822;46.880;8.642;2024-03-02T18:03:11;94708.13;;;14.15;nan
86173;BME280;76822;46.880;8.642;2024-03-02T18:06:31;94734.03;;;14.08;nan
86173;BME280;76822;46.880;8.642;2024-03-02T18:09:51;94711.25;;;13.61;nan
86173;BME280;76822;46.880;8.642;2024-03-02T18:13:12;94690.59;;;13.65;nan
86173;BME280;76822;46.880;8.642;2024-03-02T18:16:33;94716.28;;;13.73;nan
86173;BME280;76822;46.880;8.642;2024-03-02T18:19:53;94704.53;;;13.58;nan
86173;BME280;76822;46.880;8.642;2024-03-02T18:23:13;94666.31;;;14.16;nan
86173;BME280;76822;46.880;8.642;2024-03-02T18:26:34;94684.41;;;13.83;nan